Terminal Aerodrome Forecast
Issued by NWS Denver/Boulder, CO

Home | Current Version | Previous Version | Text Only | Print | Product List | Glossary On
Versions: 1 2 3 4 5 6 7 8 9 10 11 12 13 14 15 16 17 18 19 20 21 22 23 24 25 26 27 28 29 30 31 32 33 34 35 36 37 38 39 40 41 42 43 44 45 46 47 48 49 50
747
FTUS45 KBOU 241246 AAA
TAFDEN
TAF AMD
KDEN 241246Z 2413/2518 02010KT 2SM -SN BR BKN005 OVC010
     FM241330 01010KT 6SM -SN BR BKN012 OVC025
     FM241600 01013KT P6SM BKN025 OVC050
     FM242200 02012KT P6SM BKN040 BKN100
     FM250200 05007KT P6SM BKN030 OVC050
     FM251200 26005KT P6SM FEW030 SCT040
     FM251600 35008KT P6SM SKC=

USA.gov is the U.S. government's official web portal to all federal, state and local government web resources and services.